sensor_id;sensor_type;location;lat;lon;timestamp;pressure;altitude;pressure_sealevel;temperature;humidity
11499;BME280;5806;48.748;9.278;2023-03-16T00:00:06;101432.80;;;3.55;62.12
11499;BME280;5806;48.748;9.278;2023-03-16T00:02:36;101432.75;;;3.63;62.30
11499;BME280;5806;48.748;9.278;2023-03-16T00:05:03;101425.58;;;3.51;62.13
11499;BME280;5806;48.748;9.278;2023-03-16T00:07:31;101421.22;;;3.65;62.27
11499;BME280;5806;48.748;9.278;2023-03-16T00:09:59;101418.88;;;3.66;62.55
11499;BME280;5806;48.748;9.278;2023-03-16T00:12:27;101418.45;;;3.50;62.38
11499;BME280;5806;48.748;9.278;2023-03-16T00:14:54;101426.92;;;3.51;62.98
11499;BME280;5806;48.748;9.278;2023-03-16T00:17:22;101417.95;;;3.51;62.40
11499;BME280;5806;48.748;9.278;2023-03-16T00:20:05;101414.98;;;3.42;62.89
11499;BME280;5806;48.748;9.278;2023-03-16T00:22:33;101410.73;;;3.47;62.79
11499;BME280;5806;48.748;9.278;2023-03-16T00:25:01;101414.55;;;3.53;62.05
11499;BME280;5806;48.748;9.278;2023-03-16T00:27:29;101409.29;;;3.59;61.50
11499;BME280;5806;48.748;9.278;2023-03-16T00:29:57;101408.08;;;3.39;62.50
11499;BME280;5806;48.748;9.278;2023-03-16T00:32:27;101402.84;;;3.60;61.96
11499;BME280;5806;48.748;9.278;2023-03-16T00:34:54;101395.47;;;3.28;63.14
11499;BME280;5806;48.748;9.278;2023-03-16T00:37:23;101403.81;;;3.41;62.96
11499;BME280;5806;48.748;9.278;2023-03-16T00:39:51;101389.33;;;3.60;61.62
11499;BME280;5806;48.748;9.278;2023-03-16T00:42:22;101395.41;;;3.58;62.09
11499;BME280;5806;48.748;9.278;2023-03-16T00:44:58;101389.50;;;3.59;61.46
11499;BME280;5806;48.748;9.278;2023-03-16T00:47:29;101388.18;;;3.55;61.93
11499;BME280;5806;48.748;9.278;2023-03-16T00:49:58;101388.86;;;3.53;61.10
11499;BME280;5806;48.748;9.278;2023-03-16T00:52:27;101390.22;;;3.75;60.50
11499;BME280;5806;48.748;9.278;2023-03-16T00:54:55;101392.59;;;3.52;61.26
11499;BME280;5806;48.748;9.278;2023-03-16T00:57:24;101391.70;;;3.59;62.17
11499;BME280;5806;48.748;9.278;2023-03-16T00:59:53;101397.77;;;3.61;61.33
11499;BME280;5806;48.748;9.278;2023-03-16T01:02:21;101394.73;;;3.60;61.20
11499;BME280;5806;48.748;9.278;2023-03-16T01:04:52;101395.36;;;3.85;59.97
11499;BME280;5806;48.748;9.278;2023-03-16T01:07:19;101390.51;;;3.80;60.51
11499;BME280;5806;48.748;9.278;2023-03-16T01:09:47;101394.62;;;3.54;60.75
11499;BME280;5806;48.748;9.278;2023-03-16T01:12:16;101400.52;;;3.76;60.67
11499;BME280;5806;48.748;9.278;2023-03-16T01:14:44;101402.66;;;3.84;61.76
11499;BME280;5806;48.748;9.278;2023-03-16T01:17:13;101407.61;;;3.54;61.17
11499;BME280;5806;48.748;9.278;2023-03-16T01:19:41;101407.09;;;3.77;60.97
11499;BME280;5806;48.748;9.278;2023-03-16T01:22:09;101400.69;;;3.93;60.62
11499;BME280;5806;48.748;9.278;2023-03-16T01:24:38;101393.03;;;3.63;60.40
11499;BME280;5806;48.748;9.278;2023-03-16T01:27:06;101383.64;;;3.74;60.16
11499;BME280;5806;48.748;9.278;2023-03-16T01:29:34;101371.25;;;3.79;59.69
11499;BME280;5806;48.748;9.278;2023-03-16T01:32:03;101371.08;;;3.77;60.14
11499;BME280;5806;48.748;9.278;2023-03-16T01:34:31;101371.53;;;3.84;59.54
11499;BME280;5806;48.748;9.278;2023-03-16T01:36:59;101366.94;;;3.85;59.66
11499;BME280;5806;48.748;9.278;2023-03-16T01:39:27;101360.99;;;3.89;59.91
11499;BME280;5806;48.748;9.278;2023-03-16T01:41:55;101351.09;;;3.82;59.95
11499;BME280;5806;48.748;9.278;2023-03-16T01:44:24;101362.16;;;3.91;60.17
11499;BME280;5806;48.748;9.278;2023-03-16T01:47:00;101362.16;;;3.91;59.48
11499;BME280;5806;48.748;9.278;2023-03-16T01:49:35;101354.47;;;3.98;59.11
11499;BME280;5806;48.748;9.278;2023-03-16T01:52:08;101344.73;;;3.75;59.93
11499;BME280;5806;48.748;9.278;2023-03-16T01:54:59;101346.39;;;3.94;59.48
11499;BME280;5806;48.748;9.278;2023-03-16T01:57:19;101339.10;;;3.80;59.82
11499;BME280;5806;48.748;9.278;2023-03-16T02:00:07;101329.93;;;4.00;58.96
11499;BME280;5806;48.748;9.278;2023-03-16T02:02:38;101320.63;;;3.84;59.22
11499;BME280;5806;48.748;9.278;2023-03-16T02:05:11;101324.16;;;4.03;59.05
11499;BME280;5806;48.748;9.278;2023-03-16T02:07:42;101320.04;;;3.92;59.07
11499;BME280;5806;48.748;9.278;2023-03-16T02:10:11;101311.13;;;4.02;59.12
11499;BME280;5806;48.748;9.278;2023-03-16T02:12:39;101312.91;;;3.77;59.33
11499;BME280;5806;48.748;9.278;2023-03-16T02:15:09;101313.05;;;3.98;59.07
11499;BME280;5806;48.748;9.278;2023-03-16T02:17:37;101299.70;;;4.11;58.47
11499;BME280;5806;48.748;9.278;2023-03-16T02:23:13;101301.60;;;3.92;59.75
11499;BME280;5806;48.748;9.278;2023-03-16T02:31:11;101301.28;;;3.91;58.60
11499;BME280;5806;48.748;9.278;2023-03-16T02:33:39;101297.81;;;3.97;59.51
11499;BME280;5806;48.748;9.278;2023-03-16T02:36:08;101297.18;;;3.95;59.04
11499;BME280;5806;48.748;9.278;2023-03-16T02:38:35;101289.83;;;3.99;58.52
11499;BME280;5806;48.748;9.278;2023-03-16T02:41:11;101284.95;;;3.99;58.30
11499;BME280;5806;48.748;9.278;2023-03-16T02:43:42;101275.66;;;3.83;58.18
11499;BME280;5806;48.748;9.278;2023-03-16T02:46:10;101273.72;;;3.73;59.20
11499;BME280;5806;48.748;9.278;2023-03-16T02:51:11;101277.66;;;3.99;58.99
11499;BME280;5806;48.748;9.278;2023-03-16T02:53:38;101284.55;;;4.06;58.13
11499;BME280;5806;48.748;9.278;2023-03-16T02:56:06;101281.73;;;3.66;59.09
11499;BME280;5806;48.748;9.278;2023-03-16T02:58:34;101277.04;;;3.64;58.63
11499;BME280;5806;48.748;9.278;2023-03-16T03:01:02;101280.03;;;3.84;58.39
11499;BME280;5806;48.748;9.278;2023-03-16T03:03:29;101271.52;;;3.91;58.33
11499;BME280;5806;48.748;9.278;2023-03-16T03:05:59;101269.35;;;3.86;58.63
11499;BME280;5806;48.748;9.278;2023-03-16T03:08:27;101269.80;;;3.79;58.18
11499;BME280;5806;48.748;9.278;2023-03-16T03:10:54;101260.41;;;3.71;58.44
11499;BME280;5806;48.748;9.278;2023-03-16T03:13:22;101257.66;;;3.75;58.83
11499;BME280;5806;48.748;9.278;2023-03-16T03:15:49;101263.25;;;3.74;58.74
11499;BME280;5806;48.748;9.278;2023-03-16T03:18:17;101276.06;;;3.76;58.86
11499;BME280;5806;48.748;9.278;2023-03-16T03:20:45;101276.21;;;3.93;58.98
11499;BME280;5806;48.748;9.278;2023-03-16T03:23:12;101272.38;;;3.87;58.87
11499;BME280;5806;48.748;9.278;2023-03-16T03:25:41;101269.48;;;3.89;58.53
11499;BME280;5806;48.748;9.278;2023-03-16T03:28:09;101258.80;;;3.77;58.66
11499;BME280;5806;48.748;9.278;2023-03-16T03:30:36;101258.44;;;3.80;58.31
11499;BME280;5806;48.748;9.278;2023-03-16T03:33:04;101260.73;;;3.87;58.30
11499;BME280;5806;48.748;9.278;2023-03-16T03:35:32;101257.75;;;3.96;58.24
11499;BME280;5806;48.748;9.278;2023-03-16T03:37:59;101253.78;;;4.03;58.29
11499;BME280;5806;48.748;9.278;2023-03-16T03:40:27;101256.81;;;4.04;57.69
11499;BME280;5806;48.748;9.278;2023-03-16T03:42:54;101258.80;;;3.91;57.92
11499;BME280;5806;48.748;9.278;2023-03-16T03:45:22;101256.67;;;3.87;58.70
11499;BME280;5806;48.748;9.278;2023-03-16T03:47:49;101258.84;;;3.87;58.51
11499;BME280;5806;48.748;9.278;2023-03-16T03:50:17;101254.47;;;3.86;58.83
11499;BME280;5806;48.748;9.278;2023-03-16T03:52:44;101251.67;;;3.94;58.21
11499;BME280;5806;48.748;9.278;2023-03-16T03:55:12;101248.19;;;4.04;57.63
11499;BME280;5806;48.748;9.278;2023-03-16T03:57:39;101248.03;;;3.87;58.12
11499;BME280;5806;48.748;9.278;2023-03-16T04:00:10;101240.89;;;3.90;58.26
11499;BME280;5806;48.748;9.278;2023-03-16T04:02:37;101240.76;;;3.88;57.91
11499;BME280;5806;48.748;9.278;2023-03-16T04:05:06;101247.16;;;3.76;58.72
11499;BME280;5806;48.748;9.278;2023-03-16T04:07:34;101255.96;;;3.89;58.11
11499;BME280;5806;48.748;9.278;2023-03-16T04:10:01;101251.86;;;3.93;57.93
11499;BME280;5806;48.748;9.278;2023-03-16T04:12:29;101244.73;;;3.81;59.02
11499;BME280;5806;48.748;9.278;2023-03-16T04:14:56;101255.44;;;3.60;59.35
11499;BME280;5806;48.748;9.278;2023-03-16T04:17:24;101252.75;;;3.89;58.49
11499;BME280;5806;48.748;9.278;2023-03-16T04:19:51;101252.30;;;3.86;58.45
11499;BME280;5806;48.748;9.278;2023-03-16T04:22:19;101245.27;;;3.91;58.48
11499;BME280;5806;48.748;9.278;2023-03-16T04:24:48;101247.98;;;3.91;58.44
11499;BME280;5806;48.748;9.278;2023-03-16T04:27:17;101240.85;;;3.80;59.04
11499;BME280;5806;48.748;9.278;2023-03-16T04:29:45;101238.23;;;3.86;59.33
11499;BME280;5806;48.748;9.278;2023-03-16T04:32:12;101234.84;;;3.88;58.59
11499;BME280;5806;48.748;9.278;2023-03-16T04:34:40;101226.64;;;3.82;58.72
11499;BME280;5806;48.748;9.278;2023-03-16T04:37:09;101229.70;;;4.08;58.71
11499;BME280;5806;48.748;9.278;2023-03-16T04:39:37;101221.50;;;3.87;59.39
11499;BME280;5806;48.748;9.278;2023-03-16T04:42:05;101219.07;;;3.77;59.42
11499;BME280;5806;48.748;9.278;2023-03-16T04:44:32;101217.63;;;3.85;59.24
11499;BME280;5806;48.748;9.278;2023-03-16T04:47:00;101215.42;;;3.85;59.34
11499;BME280;5806;48.748;9.278;2023-03-16T04:49:27;101215.06;;;3.73;59.08
11499;BME280;5806;48.748;9.278;2023-03-16T04:51:55;101216.96;;;4.12;58.72
11499;BME280;5806;48.748;9.278;2023-03-16T04:54:23;101206.97;;;3.98;59.51
11499;BME280;5806;48.748;9.278;2023-03-16T04:56:50;101204.14;;;3.81;59.66
11499;BME280;5806;48.748;9.278;2023-03-16T04:59:18;101204.37;;;3.90;59.88
11499;BME280;5806;48.748;9.278;2023-03-16T05:01:46;101212.12;;;3.93;60.64
11499;BME280;5806;48.748;9.278;2023-03-16T05:04:13;101206.20;;;3.94;59.43
11499;BME280;5806;48.748;9.278;2023-03-16T05:06:41;101201.51;;;4.02;59.33
11499;BME280;5806;48.748;9.278;2023-03-16T05:09:09;101199.81;;;3.91;60.94
11499;BME280;5806;48.748;9.278;2023-03-16T05:11:37;101192.55;;;3.87;59.88
11499;BME280;5806;48.748;9.278;2023-03-16T05:14:05;101193.39;;;4.02;59.35
11499;BME280;5806;48.748;9.278;2023-03-16T05:16:33;101196.97;;;3.88;59.63
11499;BME280;5806;48.748;9.278;2023-03-16T05:19:01;101198.64;;;4.14;59.45
11499;BME280;5806;48.748;9.278;2023-03-16T05:21:28;101196.71;;;4.08;59.89
11499;BME280;5806;48.748;9.278;2023-03-16T05:23:59;101200.16;;;4.02;59.23
11499;BME280;5806;48.748;9.278;2023-03-16T05:26:26;101195.28;;;4.02;58.97
11499;BME280;5806;48.748;9.278;2023-03-16T05:28:54;101196.87;;;4.21;58.60
11499;BME280;5806;48.748;9.278;2023-03-16T05:31:23;101203.13;;;4.07;59.00
11499;BME280;5806;48.748;9.278;2023-03-16T05:33:52;101193.08;;;4.01;59.23
11499;BME280;5806;48.748;9.278;2023-03-16T05:36:20;101206.47;;;3.99;59.46
11499;BME280;5806;48.748;9.278;2023-03-16T05:38:47;101200.00;;;4.14;59.38
11499;BME280;5806;48.748;9.278;2023-03-16T05:41:15;101197.82;;;3.99;59.50
11499;BME280;5806;48.748;9.278;2023-03-16T05:43:44;101201.17;;;4.16;59.12
11499;BME280;5806;48.748;9.278;2023-03-16T05:46:13;101201.62;;;4.19;59.45
11499;BME280;5806;48.748;9.278;2023-03-16T05:48:40;101199.61;;;4.07;59.47
11499;BME280;5806;48.748;9.278;2023-03-16T05:51:08;101198.38;;;4.09;59.44
11499;BME280;5806;48.748;9.278;2023-03-16T05:53:35;101200.00;;;4.14;59.29
11499;BME280;5806;48.748;9.278;2023-03-16T05:56:03;101198.80;;;4.27;59.18
11499;BME280;5806;48.748;9.278;2023-03-16T05:58:31;101198.02;;;4.12;59.44
11499;BME280;5806;48.748;9.278;2023-03-16T06:00:59;101207.86;;;4.09;59.46
11499;BME280;5806;48.748;9.278;2023-03-16T06:03:31;101200.05;;;4.10;59.37
11499;BME280;5806;48.748;9.278;2023-03-16T06:05:58;101197.41;;;4.06;59.48
11499;BME280;5806;48.748;9.278;2023-03-16T06:08:27;101201.54;;;4.13;59.28
11499;BME280;5806;48.748;9.278;2023-03-16T06:10:55;101205.09;;;4.13;59.29
11499;BME280;5806;48.748;9.278;2023-03-16T06:13:23;101207.38;;;4.20;59.55
11499;BME280;5806;48.748;9.278;2023-03-16T06:15:51;101209.23;;;4.20;59.38
11499;BME280;5806;48.748;9.278;2023-03-16T06:18:18;101210.03;;;4.24;60.25
11499;BME280;5806;48.748;9.278;2023-03-16T06:20:45;101215.20;;;4.15;59.38
11499;BME280;5806;48.748;9.278;2023-03-16T06:23:13;101220.57;;;4.19;59.19
11499;BME280;5806;48.748;9.278;2023-03-16T06:25:41;101210.11;;;4.31;58.99
11499;BME280;5806;48.748;9.278;2023-03-16T06:28:09;101204.11;;;4.35;59.06
11499;BME280;5806;48.748;9.278;2023-03-16T06:30:36;101206.80;;;4.25;59.44
11499;BME280;5806;48.748;9.278;2023-03-16T06:33:04;101204.95;;;4.36;59.61
11499;BME280;5806;48.748;9.278;2023-03-16T06:35:31;101206.33;;;4.46;58.79
11499;BME280;5806;48.748;9.278;2023-03-16T06:37:59;101202.87;;;4.52;58.91
11499;BME280;5806;48.748;9.278;2023-03-16T06:40:27;101208.00;;;4.47;58.57
11499;BME280;5806;48.748;9.278;2023-03-16T06:42:54;101207.73;;;4.42;59.35
11499;BME280;5806;48.748;9.278;2023-03-16T06:45:22;101205.65;;;4.59;58.71
11499;BME280;5806;48.748;9.278;2023-03-16T06:47:51;101208.17;;;4.60;59.13
11499;BME280;5806;48.748;9.278;2023-03-16T06:50:18;101212.91;;;4.48;59.40
11499;BME280;5806;48.748;9.278;2023-03-16T06:52:46;101214.59;;;4.59;59.22
11499;BME280;5806;48.748;9.278;2023-03-16T06:55:13;101216.80;;;4.60;58.83
11499;BME280;5806;48.748;9.278;2023-03-16T06:57:41;101216.41;;;4.52;59.35
11499;BME280;5806;48.748;9.278;2023-03-16T07:00:10;101218.59;;;4.63;59.57
11499;BME280;5806;48.748;9.278;2023-03-16T07:02:40;101224.63;;;4.69;59.05
11499;BME280;5806;48.748;9.278;2023-03-16T07:05:10;101223.20;;;4.73;58.71
11499;BME280;5806;48.748;9.278;2023-03-16T07:07:41;101223.39;;;4.82;59.12
11499;BME280;5806;48.748;9.278;2023-03-16T07:10:11;101228.19;;;4.80;58.40
11499;BME280;5806;48.748;9.278;2023-03-16T07:12:39;101222.95;;;4.89;58.70
11499;BME280;5806;48.748;9.278;2023-03-16T07:15:07;101222.16;;;4.85;58.94
11499;BME280;5806;48.748;9.278;2023-03-16T07:17:35;101233.61;;;4.80;58.77
11499;BME280;5806;48.748;9.278;2023-03-16T07:20:03;101228.56;;;4.98;58.48
11499;BME280;5806;48.748;9.278;2023-03-16T07:22:33;101227.58;;;4.95;59.16
11499;BME280;5806;48.748;9.278;2023-03-16T07:25:00;101227.64;;;5.02;59.22
11499;BME280;5806;48.748;9.278;2023-03-16T07:27:28;101226.58;;;4.96;58.50
11499;BME280;5806;48.748;9.278;2023-03-16T07:29:55;101224.87;;;5.06;58.88
11499;BME280;5806;48.748;9.278;2023-03-16T07:32:22;101218.45;;;4.96;58.66
11499;BME280;5806;48.748;9.278;2023-03-16T07:34:50;101213.58;;;5.13;59.04
11499;BME280;5806;48.748;9.278;2023-03-16T07:37:17;101223.45;;;4.99;58.85
11499;BME280;5806;48.748;9.278;2023-03-16T07:39:45;101225.22;;;5.07;59.16
11499;BME280;5806;48.748;9.278;2023-03-16T07:42:12;101225.16;;;5.00;58.90
11499;BME280;5806;48.748;9.278;2023-03-16T07:44:40;101221.34;;;5.05;58.91
11499;BME280;5806;48.748;9.278;2023-03-16T07:47:08;101223.13;;;5.09;58.68
11499;BME280;5806;48.748;9.278;2023-03-16T07:49:37;101225.97;;;5.11;59.35
11499;BME280;5806;48.748;9.278;2023-03-16T07:52:06;101223.44;;;5.20;58.56
11499;BME280;5806;48.748;9.278;2023-03-16T07:54:33;101217.90;;;5.07;58.51
11499;BME280;5806;48.748;9.278;2023-03-16T07:57:01;101215.31;;;5.31;59.00
11499;BME280;5806;48.748;9.278;2023-03-16T07:59:28;101212.23;;;5.40;58.73
11499;BME280;5806;48.748;9.278;2023-03-16T08:01:56;101219.67;;;5.43;58.81
11499;BME280;5806;48.748;9.278;2023-03-16T08:04:25;101216.00;;;5.57;58.62
11499;BME280;5806;48.748;9.278;2023-03-16T08:06:52;101213.05;;;5.52;58.21
11499;BME280;5806;48.748;9.278;2023-03-16T08:09:21;101212.47;;;5.56;58.00
11499;BME280;5806;48.748;9.278;2023-03-16T08:11:48;101206.27;;;5.52;58.08
11499;BME280;5806;48.748;9.278;2023-03-16T08:14:16;101200.77;;;5.56;58.01
11499;BME280;5806;48.748;9.278;2023-03-16T08:16:43;101199.80;;;5.53;58.19
11499;BME280;5806;48.748;9.278;2023-03-16T08:19:11;101206.94;;;5.71;58.53
11499;BME280;5806;48.748;9.278;2023-03-16T08:21:38;101208.13;;;5.79;58.49
11499;BME280;5806;48.748;9.278;2023-03-16T08:24:06;101208.45;;;5.63;58.38
11499;BME280;5806;48.748;9.278;2023-03-16T08:26:34;101211.11;;;5.84;58.55
11499;BME280;5806;48.748;9.278;2023-03-16T08:29:02;101212.98;;;5.73;58.44
11499;BME280;5806;48.748;9.278;2023-03-16T08:31:32;101218.02;;;5.86;58.39
11499;BME280;5806;48.748;9.278;2023-03-16T08:34:01;101217.78;;;5.81;58.30
11499;BME280;5806;48.748;9.278;2023-03-16T08:36:29;101214.06;;;5.89;58.10
11499;BME280;5806;48.748;9.278;2023-03-16T08:38:56;101212.63;;;5.93;58.65
11499;BME280;5806;48.748;9.278;2023-03-16T08:41:25;101214.52;;;5.92;57.99
11499;BME280;5806;48.748;9.278;2023-03-16T08:43:54;101203.89;;;5.97;58.34
11499;BME280;5806;48.748;9.278;2023-03-16T08:46:23;101210.20;;;6.04;58.69
11499;BME280;5806;48.748;9.278;2023-03-16T08:48:50;101204.03;;;6.06;58.35
11499;BME280;5806;48.748;9.278;2023-03-16T08:51:17;101200.44;;;6.16;57.97
11499;BME280;5806;48.748;9.278;2023-03-16T08:53:45;101201.45;;;6.32;57.77
11499;BME280;5806;48.748;9.278;2023-03-16T08:56:13;101199.91;;;6.40;57.30
11499;BME280;5806;48.748;9.278;2023-03-16T08:58:41;101194.14;;;6.39;57.86
11499;BME280;5806;48.748;9.278;2023-03-16T09:01:14;101194.45;;;6.34;57.17
11499;BME280;5806;48.748;9.278;2023-03-16T09:03:42;101196.33;;;6.33;57.52
11499;BME280;5806;48.748;9.278;2023-03-16T09:06:13;101189.06;;;6.23;57.33
11499;BME280;5806;48.748;9.278;2023-03-16T09:08:41;101201.25;;;6.34;57.73
11499;BME280;5806;48.748;9.278;2023-03-16T09:11:15;101205.18;;;6.31;57.10
11499;BME280;5806;48.748;9.278;2023-03-16T09:13:44;101202.65;;;6.47;57.66
11499;BME280;5806;48.748;9.278;2023-03-16T09:16:14;101193.65;;;6.46;58.16
11499;BME280;5806;48.748;9.278;2023-03-16T09:18:42;101188.89;;;6.61;57.15
11499;BME280;5806;48.748;9.278;2023-03-16T09:21:10;101190.67;;;6.71;57.47
11499;BME280;5806;48.748;9.278;2023-03-16T09:23:40;101189.41;;;6.67;57.33
11499;BME280;5806;48.748;9.278;2023-03-16T09:26:10;101182.97;;;6.75;57.74
11499;BME280;5806;48.748;9.278;2023-03-16T09:28:39;101190.48;;;6.79;57.94
11499;BME280;5806;48.748;9.278;2023-03-16T09:31:09;101194.65;;;6.69;56.69
11499;BME280;5806;48.748;9.278;2023-03-16T09:33:38;101189.31;;;6.71;56.84
11499;BME280;5806;48.748;9.278;2023-03-16T09:36:05;101180.91;;;6.96;57.37
11499;BME280;5806;48.748;9.278;2023-03-16T09:38:33;101180.91;;;6.96;55.83
11499;BME280;5806;48.748;9.278;2023-03-16T09:46:46;101162.98;;;7.50;56.60
11499;BME280;5806;48.748;9.278;2023-03-16T09:49:18;101161.83;;;7.61;55.04
11499;BME280;5806;48.748;9.278;2023-03-16T09:55:17;101165.29;;;7.53;54.13
11499;BME280;5806;48.748;9.278;2023-03-16T09:57:42;101161.12;;;7.44;55.66
11499;BME280;5806;48.748;9.278;2023-03-16T10:00:29;101141.53;;;7.44;54.76
11499;BME280;5806;48.748;9.278;2023-03-16T10:02:56;101146.66;;;7.43;54.39
11499;BME280;5806;48.748;9.278;2023-03-16T10:05:23;101144.33;;;7.66;54.70
11499;BME280;5806;48.748;9.278;2023-03-16T10:08:14;101143.58;;;7.68;53.98
11499;BME280;5806;48.748;9.278;2023-03-16T10:14:01;101129.64;;;7.74;53.76
11499;BME280;5806;48.748;9.278;2023-03-16T10:16:16;101130.60;;;7.70;53.94
11499;BME280;5806;48.748;9.278;2023-03-16T10:18:44;101133.12;;;7.72;53.95
11499;BME280;5806;48.748;9.278;2023-03-16T10:21:13;101130.30;;;7.69;53.63
11499;BME280;5806;48.748;9.278;2023-03-16T10:23:42;101130.55;;;7.83;54.58
11499;BME280;5806;48.748;9.278;2023-03-16T10:26:20;101134.33;;;7.82;54.90
11499;BME280;5806;48.748;9.278;2023-03-16T10:28:46;101137.34;;;7.90;54.13
11499;BME280;5806;48.748;9.278;2023-03-16T10:31:16;101139.88;;;7.85;53.76
11499;BME280;5806;48.748;9.278;2023-03-16T10:33:45;101141.17;;;7.76;53.11
11499;BME280;5806;48.748;9.278;2023-03-16T10:38:56;101134.50;;;7.94;54.23
11499;BME280;5806;48.748;9.278;2023-03-16T10:41:38;101124.56;;;7.90;54.22
11499;BME280;5806;48.748;9.278;2023-03-16T10:44:20;101111.25;;;7.91;54.03
11499;BME280;5806;48.748;9.278;2023-03-16T10:46:47;101115.01;;;7.97;53.13
11499;BME280;5806;48.748;9.278;2023-03-16T10:49:23;101123.30;;;7.93;52.86
11499;BME280;5806;48.748;9.278;2023-03-16T10:51:54;101128.59;;;8.03;53.08
11499;BME280;5806;48.748;9.278;2023-03-16T10:54:34;101126.69;;;8.10;53.63
11499;BME280;5806;48.748;9.278;2023-03-16T10:59:50;101115.88;;;8.13;52.84
11499;BME280;5806;48.748;9.278;2023-03-16T11:02:20;101108.17;;;8.32;52.85
11499;BME280;5806;48.748;9.278;2023-03-16T11:04:49;101102.89;;;8.37;52.56
11499;BME280;5806;48.748;9.278;2023-03-16T11:07:19;101097.61;;;8.42;52.93
11499;BME280;5806;48.748;9.278;2023-03-16T11:09:51;101093.89;;;8.52;52.13
11499;BME280;5806;48.748;9.278;2023-03-16T11:12:21;101087.38;;;8.53;51.88
11499;BME280;5806;48.748;9.278;2023-03-16T11:14:49;101090.30;;;8.67;52.74
11499;BME280;5806;48.748;9.278;2023-03-16T11:17:30;101077.73;;;8.66;52.52
11499;BME280;5806;48.748;9.278;2023-03-16T11:19:59;101074.88;;;8.70;51.82
11499;BME280;5806;48.748;9.278;2023-03-16T11:22:27;101065.98;;;8.81;52.50
11499;BME280;5806;48.748;9.278;2023-03-16T11:27:47;101065.22;;;8.83;52.43
11499;BME280;5806;48.748;9.278;2023-03-16T11:30:28;101065.77;;;8.82;51.98
11499;BME280;5806;48.748;9.278;2023-03-16T11:32:57;101061.17;;;8.92;51.95
11499;BME280;5806;48.748;9.278;2023-03-16T11:38:16;101055.61;;;9.23;50.70
11499;BME280;5806;48.748;9.278;2023-03-16T11:41:04;101041.84;;;9.45;50.57
11499;BME280;5806;48.748;9.278;2023-03-16T11:44:02;101031.97;;;9.62;50.42
11499;BME280;5806;48.748;9.278;2023-03-16T11:49:28;101022.19;;;9.36;51.01
11499;BME280;5806;48.748;9.278;2023-03-16T11:52:24;101024.55;;;9.33;49.84
11499;BME280;5806;48.748;9.278;2023-03-16T12:03:35;101016.19;;;9.55;50.04
11499;BME280;5806;48.748;9.278;2023-03-16T12:11:24;101002.77;;;9.71;48.15
11499;BME280;5806;48.748;9.278;2023-03-16T12:14:07;100993.92;;;9.87;47.46
11499;BME280;5806;48.748;9.278;2023-03-16T12:19:17;100998.81;;;10.15;48.22
11499;BME280;5806;48.748;9.278;2023-03-16T12:21:46;100992.84;;;10.27;47.15
11499;BME280;5806;48.748;9.278;2023-03-16T12:24:23;100979.08;;;10.45;47.22
11499;BME280;5806;48.748;9.278;2023-03-16T12:26:45;100972.63;;;10.28;46.10
11499;BME280;5806;48.748;9.278;2023-03-16T12:29:48;100972.67;;;10.19;46.46
11499;BME280;5806;48.748;9.278;2023-03-16T12:32:18;100963.17;;;10.22;46.72
11499;BME280;5806;48.748;9.278;2023-03-16T12:34:55;100946.88;;;10.15;46.61
11499;BME280;5806;48.748;9.278;2023-03-16T12:37:33;100941.75;;;10.28;47.47
11499;BME280;5806;48.748;9.278;2023-03-16T12:43:23;100934.01;;;10.25;46.42
11499;BME280;5806;48.748;9.278;2023-03-16T12:48:27;100940.23;;;10.23;46.96
11499;BME280;5806;48.748;9.278;2023-03-16T12:51:00;100932.13;;;10.37;46.01
11499;BME280;5806;48.748;9.278;2023-03-16T12:53:40;100924.91;;;10.33;45.57
11499;BME280;5806;48.748;9.278;2023-03-16T12:56:17;100920.40;;;10.27;46.00
11499;BME280;5806;48.748;9.278;2023-03-16T12:58:47;100911.18;;;10.31;46.02
11499;BME280;5806;48.748;9.278;2023-03-16T13:01:17;100909.52;;;10.41;45.63
11499;BME280;5806;48.748;9.278;2023-03-16T13:03:48;100908.95;;;10.39;46.03
11499;BME280;5806;48.748;9.278;2023-03-16T13:06:19;100907.98;;;10.34;45.94
11499;BME280;5806;48.748;9.278;2023-03-16T13:08:54;100897.48;;;10.40;45.96
11499;BME280;5806;48.748;9.278;2023-03-16T13:11:17;100900.97;;;10.49;45.93
11499;BME280;5806;48.748;9.278;2023-03-16T13:16:30;100896.40;;;10.52;46.21
11499;BME280;5806;48.748;9.278;2023-03-16T13:18:58;100880.10;;;10.57;45.78
11499;BME280;5806;48.748;9.278;2023-03-16T13:21:40;100879.58;;;10.58;46.04
11499;BME280;5806;48.748;9.278;2023-03-16T13:27:00;100866.85;;;10.63;45.14
11499;BME280;5806;48.748;9.278;2023-03-16T13:29:29;100872.61;;;10.64;45.21
11499;BME280;5806;48.748;9.278;2023-03-16T13:32:09;100865.59;;;10.68;44.78
11499;BME280;5806;48.748;9.278;2023-03-16T13:34:52;100858.86;;;10.73;45.67
11499;BME280;5806;48.748;9.278;2023-03-16T13:37:18;100847.58;;;10.70;44.78
11499;BME280;5806;48.748;9.278;2023-03-16T13:39:51;100847.68;;;10.75;45.33
11499;BME280;5806;48.748;9.278;2023-03-16T13:42:22;100853.25;;;10.91;45.25
11499;BME280;5806;48.748;9.278;2023-03-16T13:44:55;100846.55;;;11.10;45.47
11499;BME280;5806;48.748;9.278;2023-03-16T13:47:21;100841.08;;;11.10;44.65
11499;BME280;5806;48.748;9.278;2023-03-16T13:49:57;100839.01;;;11.17;44.84
11499;BME280;5806;48.748;9.278;2023-03-16T13:52:27;100826.27;;;11.37;44.89
11499;BME280;5806;48.748;9.278;2023-03-16T13:54:56;100820.92;;;11.16;44.62
11499;BME280;5806;48.748;9.278;2023-03-16T13:57:31;100813.52;;;11.14;44.28
11499;BME280;5806;48.748;9.278;2023-03-16T14:00:12;100809.00;;;11.36;44.16
11499;BME280;5806;48.748;9.278;2023-03-16T14:02:42;100803.72;;;11.32;44.08
11499;BME280;5806;48.748;9.278;2023-03-16T14:05:16;100794.99;;;11.49;43.87
11499;BME280;5806;48.748;9.278;2023-03-16T14:07:40;100788.79;;;11.40;44.26
11499;BME280;5806;48.748;9.278;2023-03-16T14:10:11;100783.03;;;11.39;44.85
11499;BME280;5806;48.748;9.278;2023-03-16T14:12:55;100793.70;;;11.54;43.64
11499;BME280;5806;48.748;9.278;2023-03-16T14:15:26;100790.56;;;11.46;44.05
11499;BME280;5806;48.748;9.278;2023-03-16T14:18:16;100776.22;;;11.41;43.38
11499;BME280;5806;48.748;9.278;2023-03-16T14:20:49;100778.15;;;11.41;43.88
11499;BME280;5806;48.748;9.278;2023-03-16T14:23:27;100773.41;;;11.36;43.69
11499;BME280;5806;48.748;9.278;2023-03-16T14:25:56;100770.81;;;11.30;43.29
11499;BME280;5806;48.748;9.278;2023-03-16T14:28:29;100778.30;;;11.20;43.67